Time;durP1;ratioP1;P1;durP2;ratioP2;P2;SDS_P1;SDS_P2;PMS_P1;PMS_P2;Temp;Humidity;BMP_temperature;BMP_pressure;BME280_temperature;BME280_humidity;BME280_pressure;Samples;Min_cycle;Max_cycle;Signal;HPM_P1;HPM_P2
2021/12/13 00:04:35;;;;;;;14.27;7.28;;;;;;;6.03;100.00;100865.34;8084483;29;20261;-85
2021/12/13 00:17:51;;;;;;;;;;;;;;;;;;;;;
2021/12/13 00:39:45;;;;;;;12.57;6.00;;;;;;;5.97;100.00;100866.97;8187572;28;20098;-85
2021/12/13 00:44:18;;;;;;;;;;;;;;;;;;;;;
2021/12/13 00:49:18;;;;;;;14.57;7.03;;;;;;;5.92;100.00;100878.47;8201667;28;20069;-85
2021/12/13 00:53:23;;;;;;;12.63;6.43;;;;;;;5.90;100.00;100874.22;8162982;28;20054;-85
2021/12/13 00:57:30;;;;;;;17.05;6.75;;;;;;;5.89;100.00;100878.84;8176321;28;20532;-85
2021/12/13 01:01:31;;;;;;;14.27;6.85;;;;;;;5.85;100.00;100874.78;8171174;28;20051;-85
2021/12/13 01:05:47;;;;;;;13.10;7.55;;;;;;;5.83;100.00;100871.44;8172259;28;20069;-84
2021/12/13 01:10:17;;;;;;;14.70;7.68;;;;;;;5.78;100.00;100878.50;8199100;28;20126;-84
2021/12/13 01:14:40;;;;;;;12.65;6.85;;;;;;;5.87;100.00;100882.81;8196329;28;20353;-84
2021/12/13 01:23:05;;;;;;;13.32;6.68;;;;;;;5.86;100.00;100887.44;8189946;28;20130;-83
2021/12/13 01:27:05;;;;;;;13.93;7.45;;;;;;;5.86;100.00;100889.31;8186919;28;20058;-83
2021/12/13 01:31:13;;;;;;;12.95;6.45;;;;;;;5.88;100.00;100892.72;8178969;28;20568;-85
2021/12/13 01:35:32;;;;;;;14.38;6.90;;;;;;;5.87;100.00;100894.59;8210038;28;20130;-85
2021/12/13 01:40:14;;;;;;;13.80;7.03;;;;;;;5.85;100.00;100891.22;8191065;28;20644;-84
2021/12/13 01:44:49;;;;;;;17.48;8.25;;;;;;;5.89;100.00;100892.53;8161265;28;20066;-84
2021/12/13 01:48:52;;;;;;;14.25;7.32;;;;;;;5.96;100.00;100900.84;8182302;28;20433;-84
2021/12/13 01:52:53;;;;;;;;;;;;;;;5.91;100.00;100906.84;8194793;28;20070;-84
2021/12/13 01:58:08;;;;;;;13.32;6.75;;;;;;;5.96;100.00;100909.06;8183131;28;20402;-84
2021/12/13 02:01:31;;;;;;;14.32;7.13;;;;;;;5.98;100.00;100906.97;8176214;28;20047;-85
2021/12/13 02:05:33;;;;;;;14.10;7.30;;;;;;;6.03;100.00;100912.69;8198204;28;20039;-85
2021/12/13 02:09:37;;;;;;;15.27;8.20;;;;;;;6.02;100.00;100918.38;8181849;28;20122;-84
2021/12/13 02:13:48;;;;;;;14.27;7.07;;;;;;;5.98;100.00;100909.72;8188484;28;20047;-85
2021/12/13 02:17:49;;;;;;;13.68;7.30;;;;;;;5.98;100.00;100904.25;8206925;28;20050;-85
2021/12/13 02:22:22;;;;;;;20.40;8.77;;;;;;;5.98;100.00;100909.72;8198800;28;20078;-85
2021/12/13 02:26:27;;;;;;;13.48;6.97;;;;;;;5.95;100.00;100907.38;8170218;28;20078;-85
2021/12/13 02:30:42;;;;;;;13.25;7.43;;;;;;;5.97;100.00;100915.38;8166755;28;20158;-85
2021/12/13 02:34:43;;;;;;;14.25;7.80;;;;;;;5.95;100.00;100907.38;8174347;28;20074;-84
2021/12/13 02:38:47;;;;;;;17.48;7.57;;;;;;;5.94;100.00;100911.97;8194612;28;20548;-85
2021/12/13 02:42:49;;;;;;;15.25;7.43;;;;;;;5.85;100.00;100913.09;8193318;28;20035;-84
2021/12/13 02:46:54;;;;;;;19.42;9.10;;;;;;;5.90;100.00;100913.38;8177529;28;20109;-84
2021/12/13 02:50:57;;;;;;;14.13;8.05;;;;;;;5.87;100.00;100911.03;8184738;28;20051;-84
2021/12/13 02:55:03;;;;;;;14.75;8.43;;;;;;;5.88;100.00;100907.22;8169537;28;20051;-84
2021/12/13 02:59:07;;;;;;;18.55;9.23;;;;;;;5.80;100.00;100912.84;8200983;28;20138;-83
2021/12/13 03:03:15;;;;;;;19.83;9.25;;;;;;;5.77;100.00;100915.97;8202388;28;20640;-84
2021/12/13 03:07:31;;;;;;;18.40;8.70;;;;;;;5.75;100.00;100917.19;8181778;28;20055;-85
2021/12/13 03:11:34;;;;;;;15.40;8.90;;;;;;;5.72;100.00;100924.72;8193045;28;20039;-85
2021/12/13 03:15:36;;;;;;;20.88;10.57;;;;;;;5.69;100.00;100925.09;8205172;28;20134;-85
2021/12/13 03:19:42;;;;;;;18.70;9.57;;;;;;;5.72;100.00;100921.16;8183024;28;20477;-85
2021/12/13 03:23:57;;;;;;;19.23;9.50;;;;;;;5.72;100.00;100923.88;8183194;28;20071;-85
2021/12/13 03:28:30;;;;;;;21.80;10.23;;;;;;;5.71;100.00;100925.78;8175554;28;20058;-86
2021/12/13 03:32:45;;;;;;;17.05;9.68;;;;;;;5.58;100.00;100917.38;8203262;28;20058;-85
2021/12/13 03:36:52;;;;;;;20.98;10.40;;;;;;;5.58;100.00;100913.81;8176819;28;20055;-84
2021/12/13 03:40:59;;;;;;;23.23;11.55;;;;;;;5.56;100.00;100918.59;8191001;28;20507;-85
2021/12/13 03:45:05;;;;;;;26.50;12.73;;;;;;;5.54;100.00;100915.22;8196163;28;20113;-84
2021/12/13 03:49:08;;;;;;;26.73;12.27;;;;;;;5.49;100.00;100919.38;8181926;28;20051;-84
2021/12/13 03:53:14;;;;;;;27.88;11.95;;;;;;;5.50;100.00;100914.75;8201657;28;20589;-85
2021/12/13 03:57:17;;;;;;;26.95;12.73;;;;;;;5.54;100.00;100907.88;8183970;28;20049;-84
2021/12/13 04:01:36;;;;;;;25.98;11.55;;;;;;;5.55;100.00;100911.44;8193889;28;20050;-86
2021/12/13 04:05:38;;;;;;;24.92;11.38;;;;;;;5.59;100.00;100912.75;8190199;28;20035;-83
2021/12/13 04:09:41;;;;;;;26.75;10.90;;;;;;;5.62;100.00;100910.50;8215584;28;20047;-84
2021/12/13 04:13:48;;;;;;;22.80;11.07;;;;;;;5.70;100.00;100909.53;8213640;28;20043;-82
2021/12/13 04:22:04;;;;;;;26.60;11.52;;;;;;;5.71;100.00;100909.38;8195617;28;20055;-82
2021/12/13 04:26:10;;;;;;;19.55;10.07;;;;;;;5.74;100.00;100912.72;8181435;28;20133;-83
2021/12/13 04:30:36;;;;;;;19.85;9.55;;;;;;;5.74;100.00;100913.59;8194394;28;20102;-83
2021/12/13 04:34:41;;;;;;;23.35;11.40;;;;;;;5.79;100.00;100908.38;8165182;28;20882;-82
2021/12/13 04:38:52;;;;;;;21.10;10.05;;;;;;;5.86;100.00;100920.28;8174313;28;20050;-83
2021/12/13 04:43:00;;;;;;;19.48;10.10;;;;;;;5.90;100.00;100920.72;8174132;28;20043;-84
2021/12/13 04:47:11;;;;;;;20.35;9.30;;;;;;;5.93;100.00;100921.22;8183604;28;20126;-83
2021/12/13 04:51:16;;;;;;;19.02;10.15;;;;;;;5.96;100.00;100920.00;8200438;28;20452;-83
2021/12/13 04:55:22;;;;;;;19.30;9.20;;;;;;;5.99;100.00;100930.56;8188055;28;20054;-83
2021/12/13 04:59:24;;;;;;;20.67;10.10;;;;;;;5.97;100.00;100934.53;8195669;28;20050;-83
2021/12/13 05:03:30;;;;;;;26.95;10.73;;;;;;;5.96;100.00;100936.41;8178653;28;20047;-84
2021/12/13 05:07:31;;;;;;;24.25;11.45;;;;;;;5.96;100.00;100941.03;8194575;28;20058;-84
2021/12/13 05:11:36;;;;;;;25.15;11.20;;;;;;;5.98;100.00;100945.28;8193095;28;20047;-84
2021/12/13 05:15:41;;;;;;;22.65;12.02;;;;;;;5.92;100.00;100946.88;8175384;28;20047;-84
2021/12/13 05:19:49;;;;;;;25.27;12.20;;;;;;;5.84;100.00;100944.22;8179268;28;20074;-84
2021/12/13 05:23:56;;;;;;;27.38;12.38;;;;;;;5.78;100.00;100946.88;8177976;28;20522;-84
2021/12/13 05:28:00;;;;;;;26.08;12.30;;;;;;;5.72;100.00;100937.56;8181896;28;20164;-82
2021/12/13 05:32:24;;;;;;;27.60;13.13;;;;;;;5.65;100.00;100939.34;8159458;28;20047;-83
2021/12/13 05:36:32;;;;;;;26.63;13.43;;;;;;;5.63;100.00;100953.22;8178183;28;20051;-83
2021/12/13 05:40:40;;;;;;;30.38;13.18;;;;;;;5.59;100.00;100951.03;8203247;28;20039;-84
2021/12/13 05:44:44;;;;;;;27.08;14.93;;;;;;;5.58;100.00;100946.63;8193355;28;20123;-83
2021/12/13 05:48:54;;;;;;;28.55;13.63;;;;;;;5.58;100.00;100961.13;8184978;28;20042;-84
2021/12/13 05:53:07;;;;;;;28.55;13.05;;;;;;;5.61;100.00;100963.47;8171830;28;20074;-84
2021/12/13 05:57:19;;;;;;;31.77;13.13;;;;;;;5.62;100.00;100957.00;8197495;28;20047;-84
2021/12/13 06:01:28;;;;;;;27.35;12.45;;;;;;;5.65;100.00;100967.56;8191492;28;20080;-85
2021/12/13 06:05:31;;;;;;;26.55;13.75;;;;;;;5.70;100.00;100969.72;8173352;28;20432;-84
2021/12/13 06:09:47;;;;;;;;;;;;;;;5.71;100.00;100972.25;8181933;28;20098;-84
2021/12/13 06:13:47;;;;;;;29.27;11.90;;;;;;;5.75;100.00;100972.72;8186433;28;19941;-85
2021/12/13 06:18:02;;;;;;;27.70;11.77;;;;;;;5.78;100.00;100974.25;8192825;28;20043;-84
2021/12/13 06:22:21;;;;;;;24.20;12.35;;;;;;;5.69;100.00;100977.06;8202316;28;20051;-83
2021/12/13 06:26:28;;;;;;;23.45;11.95;;;;;;;5.64;100.00;100979.50;8197609;28;20042;-84
2021/12/13 06:30:32;;;;;;;22.95;11.65;;;;;;;5.61;100.00;100981.78;8186591;28;20053;-84
2021/12/13 06:34:32;;;;;;;24.88;12.57;;;;;;;5.57;100.00;100988.69;8191948;28;20051;-83
2021/12/13 06:38:43;;;;;;;24.13;12.13;;;;;;;5.62;100.00;100983.47;8166869;28;20043;-81
2021/12/13 06:42:43;;;;;;;22.27;11.02;;;;;;;5.70;100.00;100986.97;8189032;28;20266;-79
2021/12/13 06:47:01;;;;;;;19.33;11.25;;;;;;;5.79;100.00;100989.59;8169745;28;20109;-81
2021/12/13 06:51:02;;;;;;;22.52;11.05;;;;;;;5.81;100.00;100988.38;8190777;28;20452;-80
2021/12/13 06:55:11;;;;;;;18.42;10.13;;;;;;;5.83;100.00;100996.38;8194230;28;20047;-81
2021/12/13 06:59:18;;;;;;;22.30;10.80;;;;;;;5.82;100.00;101000.16;8201678;28;20420;-80
2021/12/13 07:03:34;;;;;;;21.60;9.50;;;;;;;5.83;100.00;100994.50;8186265;28;20047;-79
2021/12/13 07:07:59;;;;;;;19.10;10.40;;;;;;;5.89;100.00;100996.50;8191351;28;20541;-81
2021/12/13 07:12:05;;;;;;;18.80;9.82;;;;;;;5.93;100.00;101002.44;8193876;28;20051;-81
2021/12/13 07:16:22;;;;;;;21.70;10.77;;;;;;;5.92;100.00;100998.84;8200722;28;20492;-80
2021/12/13 07:20:22;;;;;;;22.48;11.10;;;;;;;5.91;100.00;100999.84;8156542;28;20070;-80
2021/12/13 07:24:45;;;;;;;19.85;10.45;;;;;;;5.88;100.00;101000.25;8196282;28;20489;-81
2021/12/13 07:28:52;;;;;;;20.20;11.20;;;;;;;5.89;100.00;101007.44;8185133;28;20110;-80
2021/12/13 07:32:58;;;;;;;20.35;10.65;;;;;;;5.83;100.00;101007.31;8181227;28;20133;-80
2021/12/13 07:37:03;;;;;;;19.95;10.55;;;;;;;5.83;100.00;101008.19;8181336;28;20059;-80
2021/12/13 07:41:07;;;;;;;18.17;10.23;;;;;;;5.91;100.00;101013.53;8194149;28;20397;-80
2021/12/13 07:45:23;;;;;;;19.45;10.38;;;;;;;6.00;100.00;101010.75;8201403;28;20070;-80
2021/12/13 07:49:31;;;;;;;18.30;9.60;;;;;;;6.01;100.00;101009.69;8189186;28;20047;-80
2021/12/13 07:53:51;;;;;;;16.67;9.23;;;;;;;6.12;100.00;101012.78;8168327;28;20055;-80
2021/12/13 07:57:53;;;;;;;16.77;9.32;;;;;;;6.22;100.00;101015.25;8181182;28;20039;-81
2021/12/13 08:02:05;;;;;;;20.40;9.70;;;;;;;6.29;100.00;101020.78;8193115;28;20054;-80
2021/12/13 08:06:07;;;;;;;16.33;9.30;;;;;;;6.33;100.00;101020.19;8187009;28;20071;-81
2021/12/13 08:10:28;;;;;;;17.38;9.60;;;;;;;6.44;100.00;101020.75;8175547;28;20055;-80
2021/12/13 08:14:41;;;;;;;15.38;9.15;;;;;;;6.52;100.00;101028.88;8179274;28;20457;-80
2021/12/13 08:18:44;;;;;;;18.05;8.25;;;;;;;6.58;100.00;101025.34;8198527;28;20105;-80
2021/12/13 08:22:46;;;;;;;;;;;;;;;6.66;100.00;101022.47;8198319;28;20039;-80
2021/12/13 08:26:47;;;;;;;15.05;8.50;;;;;;;6.76;100.00;101027.63;8191319;28;19933;-80
2021/12/13 08:30:54;;;;;;;17.33;10.30;;;;;;;6.87;100.00;101029.00;8184643;28;20082;-80
2021/12/13 08:34:57;;;;;;;15.15;8.00;;;;;;;6.95;100.00;101037.94;8190374;28;20086;-80
2021/12/13 08:39:11;;;;;;;17.73;9.45;;;;;;;7.03;100.00;101032.31;8188894;28;20118;-80
2021/12/13 08:43:11;;;;;;;17.20;9.05;;;;;;;7.15;100.00;101038.13;8177792;28;20097;-81
2021/12/13 08:47:17;;;;;;;16.25;8.38;;;;;;;7.25;100.00;101040.53;8176156;28;21748;-80
2021/12/13 08:51:23;;;;;;;15.68;9.60;;;;;;;7.27;100.00;101042.03;8171502;28;20043;-80
2021/12/13 08:55:30;;;;;;;20.95;8.27;;;;;;;7.39;100.00;101036.00;8190054;28;20054;-82
2021/12/13 08:59:30;;;;;;;19.13;8.90;;;;;;;7.43;100.00;101048.25;8196478;28;20040;-80
2021/12/13 09:03:48;;;;;;;16.35;8.80;;;;;;;7.46;100.00;101056.09;8191410;28;20121;-80
2021/12/13 09:07:57;;;;;;;15.07;8.25;;;;;;;7.49;100.00;101052.94;8183949;28;20047;-81
2021/12/13 09:12:04;;;;;;;14.07;8.18;;;;;;;7.53;100.00;101063.34;8188728;28;20785;-81
2021/12/13 09:16:06;;;;;;;17.35;9.57;;;;;;;7.50;100.00;101055.50;8182490;28;20559;-82
2021/12/13 09:20:18;;;;;;;15.35;9.25;;;;;;;7.62;100.00;101064.03;8191689;28;20051;-81
2021/12/13 09:24:29;;;;;;;14.25;8.82;;;;;;;7.77;100.00;101066.66;8189602;28;20509;-80
2021/12/13 09:28:34;;;;;;;17.65;9.82;;;;;;;7.71;100.00;101062.81;8196282;28;20527;-81
2021/12/13 09:32:37;;;;;;;23.85;11.38;;;;;;;7.81;100.00;101061.63;8195121;28;20039;-80
2021/12/13 09:36:41;;;;;;;16.63;10.05;;;;;;;7.81;100.00;101070.69;8176120;28;20054;-81
2021/12/13 09:40:42;;;;;;;18.90;10.65;;;;;;;7.96;100.00;101073.31;8192253;28;20035;-81
2021/12/13 09:45:00;;;;;;;17.83;9.52;;;;;;;8.06;99.95;101072.94;8183388;28;20113;-81
2021/12/13 09:49:10;;;;;;;21.42;9.75;;;;;;;8.15;99.43;101069.84;8190282;28;20059;-81
2021/12/13 09:53:10;;;;;;;17.77;9.40;;;;;;;8.19;99.39;101062.91;8188671;28;20071;-82
2021/12/13 09:57:14;;;;;;;17.25;10.45;;;;;;;8.28;99.38;101063.56;8194357;28;20082;-82
2021/12/13 10:01:26;;;;;;;14.40;8.55;;;;;;;8.34;98.65;101073.75;8192419;28;20070;-81
2021/12/13 10:05:35;;;;;;;17.75;10.23;;;;;;;8.44;98.82;101071.47;8172153;28;20381;-81
2021/12/13 10:09:43;;;;;;;18.95;9.27;;;;;;;8.43;97.50;101068.94;8170192;28;20440;-81
2021/12/13 10:13:44;;;;;;;18.02;9.75;;;;;;;8.42;97.45;101065.38;8188526;28;20247;-81
2021/12/13 10:17:49;;;;;;;14.70;8.93;;;;;;;8.46;96.96;101065.78;8186779;28;20134;-80
2021/12/13 10:21:50;;;;;;;19.30;9.50;;;;;;;8.49;96.72;101062.63;8176535;28;20043;-81
2021/12/13 10:25:55;;;;;;;14.38;9.30;;;;;;;8.29;96.21;101059.75;8194493;28;20576;-81
2021/12/13 10:29:58;;;;;;;18.85;9.85;;;;;;;8.19;96.39;101049.16;8192641;28;20050;-81
2021/12/13 10:34:07;;;;;;;14.63;8.77;;;;;;;8.16;97.05;101049.56;8181158;28;20126;-81
2021/12/13 10:38:14;;;;;;;18.00;9.88;;;;;;;8.31;97.65;101043.09;8205882;28;20057;-81
2021/12/13 10:42:25;;;;;;;16.40;8.95;;;;;;;8.40;96.53;101045.47;8196345;28;20047;-81
2021/12/13 10:46:34;;;;;;;15.80;8.98;;;;;;;8.47;95.85;101050.16;8194966;28;20046;-81
2021/12/13 10:50:39;;;;;;;17.48;9.13;;;;;;;8.46;96.09;101048.47;8197976;28;20044;-81
2021/12/13 10:54:46;;;;;;;15.43;8.32;;;;;;;8.55;95.82;101037.09;8191239;28;20441;-82
2021/12/13 10:58:51;;;;;;;17.55;8.82;;;;;;;8.45;95.68;101042.13;8199125;28;20477;-82
2021/12/13 11:02:59;;;;;;;14.68;8.80;;;;;;;8.46;95.88;101046.56;8184824;28;20062;-81
2021/12/13 11:07:03;;;;;;;16.90;8.73;;;;;;;8.60;95.87;101051.06;8196774;28;20079;-81
2021/12/13 11:11:13;;;;;;;14.45;8.40;;;;;;;8.74;95.40;101046.44;8187547;28;20043;-82
2021/12/13 11:15:18;;;;;;;15.82;9.10;;;;;;;8.82;94.30;101046.25;8186361;28;20054;-81
2021/12/13 11:19:21;;;;;;;17.77;9.02;;;;;;;8.80;94.14;101036.50;8200357;28;20043;-82
2021/12/13 11:23:22;;;;;;;16.75;8.60;;;;;;;8.81;94.22;101038.22;8194557;28;20043;-82
2021/12/13 11:27:31;;;;;;;17.42;9.55;;;;;;;8.82;93.61;101028.91;8196372;28;20452;-82
2021/12/13 11:31:32;;;;;;;17.20;9.07;;;;;;;8.84;93.68;101029.56;8189271;28;20126;-82
2021/12/13 11:36:00;;;;;;;16.38;8.50;;;;;;;8.93;94.26;101028.31;8200268;28;20150;-83
2021/12/13 11:40:15;;;;;;;18.70;9.75;;;;;;;9.00;92.90;101023.66;8204345;28;20047;-82
2021/12/13 11:44:31;;;;;;;15.75;8.90;;;;;;;9.06;93.21;101025.56;8186931;28;20532;-82
2021/12/13 11:49:15;;;;;;;16.95;9.02;;;;;;;9.05;92.60;101026.63;8192030;28;20488;-82
2021/12/13 11:53:41;;;;;;;14.05;7.97;;;;;;;9.07;92.82;101027.25;8187497;28;20062;-82
2021/12/13 11:58:09;;;;;;;14.30;8.35;;;;;;;9.11;92.06;101023.03;8194147;28;20070;-82
2021/12/13 12:02:39;;;;;;;15.68;8.38;;;;;;;9.17;92.38;101026.00;8180794;28;20047;-82
2021/12/13 12:06:58;;;;;;;15.48;7.93;;;;;;;9.22;92.13;101015.19;8184589;28;20569;-82
2021/12/13 12:11:14;;;;;;;15.07;7.57;;;;;;;9.35;91.66;101010.53;8195660;28;20597;-82
2021/12/13 12:15:17;;;;;;;14.38;8.32;;;;;;;9.33;90.52;100995.31;8197847;28;20047;-82
2021/12/13 12:19:27;;;;;;;22.42;8.70;;;;;;;9.36;90.96;100994.88;8191796;28;20073;-82
2021/12/13 12:23:31;;;;;;;16.30;8.05;;;;;;;9.47;91.14;100991.47;8169654;28;20501;-82
2021/12/13 12:27:35;;;;;;;15.38;8.05;;;;;;;9.55;90.92;100994.03;8189435;28;20052;-81
2021/12/13 12:31:40;;;;;;;13.48;7.47;;;;;;;9.58;90.43;100990.84;8191987;28;20134;-81
2021/12/13 12:35:47;;;;;;;16.58;8.43;;;;;;;9.70;90.24;100995.69;8187117;28;20539;-82
2021/12/13 12:40:16;;;;;;;12.85;7.57;;;;;;;9.81;90.18;101003.25;8186364;28;20068;-83
2021/12/13 12:44:21;;;;;;;13.73;8.15;;;;;;;9.81;89.31;101004.13;8201542;28;20046;-82
2021/12/13 12:48:27;;;;;;;17.98;8.20;;;;;;;9.70;89.47;100998.44;8187362;28;20146;-83
2021/12/13 12:52:28;;;;;;;11.20;6.55;;;;;;;9.76;90.16;100998.41;8169224;28;20059;-82
2021/12/13 12:56:34;;;;;;;11.77;6.90;;;;;;;9.81;89.67;100997.75;8202162;28;20039;-82
2021/12/13 13:00:34;;;;;;;11.93;6.47;;;;;;;9.81;89.75;100998.63;8185656;28;20062;-82
2021/12/13 13:04:45;;;;;;;12.15;6.53;;;;;;;9.84;89.97;100989.06;8205716;28;20047;-83
2021/12/13 13:08:49;;;;;;;10.77;6.97;;;;;;;9.73;89.78;100996.09;8203597;28;20059;-82
2021/12/13 13:12:55;;;;;;;11.48;6.88;;;;;;;9.64;89.73;100983.63;8198989;28;20515;-82
2021/12/13 13:17:02;;;;;;;13.30;7.10;;;;;;;9.58;90.08;100979.81;8196369;28;20071;-83
2021/12/13 13:21:04;;;;;;;13.65;7.20;;;;;;;9.61;90.42;100980.44;8183831;28;20720;-83
2021/12/13 13:25:13;;;;;;;13.60;7.53;;;;;;;9.65;90.62;100978.97;8196197;28;20108;-81
2021/12/13 13:29:17;;;;;;;11.32;6.63;;;;;;;9.70;90.42;100973.66;8194417;28;20511;-84
2021/12/13 13:33:33;;;;;;;15.27;7.82;;;;;;;9.59;90.21;100965.00;8198172;28;20082;-83
2021/12/13 13:37:40;;;;;;;12.52;6.88;;;;;;;9.52;90.50;100966.09;8182022;28;20039;-83
2021/12/13 13:41:47;;;;;;;11.80;7.20;;;;;;;9.48;90.87;100951.91;8188335;28;20043;-82
2021/12/13 13:45:53;;;;;;;15.07;7.70;;;;;;;9.50;91.24;100970.94;8176782;28;20119;-83
2021/12/13 13:49:56;;;;;;;13.60;7.88;;;;;;;9.32;90.75;100964.19;8185115;28;20121;-83
2021/12/13 13:53:57;;;;;;;12.93;7.55;;;;;;;9.21;91.78;100981.34;8181875;28;20619;-84
2021/12/13 13:58:03;;;;;;;12.40;6.20;;;;;;;9.24;92.22;100991.09;8185863;28;20075;-83
2021/12/13 14:02:07;;;;;;;17.38;7.72;;;;;;;9.16;92.05;100977.53;8189521;28;20043;-80
2021/12/13 14:06:12;;;;;;;12.45;6.68;;;;;;;9.10;92.50;100973.72;8204626;28;20113;-82
2021/12/13 14:10:17;;;;;;;12.00;6.57;;;;;;;9.10;92.20;100974.59;8185775;28;20080;-80
2021/12/13 14:14:20;;;;;;;19.30;10.10;;;;;;;9.01;92.77;100980.50;8194471;28;20456;-81
2021/12/13 14:18:28;;;;;;;14.77;9.20;;;;;;;8.94;93.09;100980.50;8189886;28;20448;-81
2021/12/13 14:22:31;;;;;;;13.20;6.85;;;;;;;8.88;93.36;100986.84;8203227;28;20638;-81
2021/12/13 14:26:32;;;;;;;12.02;6.80;;;;;;;8.84;93.68;100980.09;8207166;28;20070;-81
2021/12/13 14:30:37;;;;;;;13.05;7.00;;;;;;;8.88;93.68;100981.34;8200669;28;20055;-81
2021/12/13 14:34:38;;;;;;;11.40;7.18;;;;;;;8.85;93.75;100985.34;8202609;28;20039;-81
2021/12/13 14:38:43;;;;;;;11.32;6.50;;;;;;;8.80;94.07;100987.88;8186915;28;20050;-82
2021/12/13 14:42:44;;;;;;;13.13;8.05;;;;;;;8.79;94.31;100988.09;8183967;28;20189;-83
2021/12/13 14:46:49;;;;;;;13.43;6.95;;;;;;;8.74;94.37;100996.13;8191421;28;20054;-83
2021/12/13 14:51:00;;;;;;;14.35;6.45;;;;;;;8.71;94.82;101002.03;8182812;28;20047;-83
2021/12/13 14:55:06;;;;;;;11.82;6.90;;;;;;;8.59;95.10;101004.53;8207328;28;20046;-83
2021/12/13 14:59:10;;;;;;;13.32;6.22;;;;;;;8.57;95.37;101009.41;8204525;28;20115;-84
2021/12/13 15:03:18;;;;;;;12.07;6.50;;;;;;;8.57;95.59;101002.03;8216318;28;20047;-82
2021/12/13 15:07:22;;;;;;;11.88;6.20;;;;;;;8.55;95.78;101001.38;8201634;28;20050;-83
2021/12/13 15:11:40;;;;;;;10.23;6.20;;;;;;;8.50;95.83;101006.63;8213928;28;20629;-83
2021/12/13 15:15:54;;;;;;;12.27;5.68;;;;;;;8.46;96.67;101018.25;8210319;28;20055;-83
2021/12/13 15:20:06;;;;;;;13.23;6.35;;;;;;;8.40;96.85;101011.69;8214242;28;20971;-82
2021/12/13 15:24:07;;;;;;;14.65;6.18;;;;;;;8.35;97.65;101008.66;8204287;28;20054;-81
2021/12/13 15:28:16;;;;;;;12.13;6.05;;;;;;;8.33;97.94;101013.50;8209768;28;20075;-83
2021/12/13 15:32:17;;;;;;;10.70;6.13;;;;;;;8.30;97.98;101009.31;8224035;28;20360;-80
2021/12/13 15:36:23;;;;;;;8.88;5.43;;;;;;;8.26;98.12;101013.50;8207143;28;20054;-81
2021/12/13 15:40:28;;;;;;;13.13;5.32;;;;;;;8.23;98.45;101012.00;8230538;28;20203;-81
2021/12/13 15:44:33;;;;;;;13.23;6.50;;;;;;;8.20;98.65;101017.91;8228255;28;20047;-81
2021/12/13 15:53:07;;;;;;;9.70;6.15;;;;;;;8.13;99.01;101017.03;8203400;28;20130;-81
2021/12/13 15:57:15;;;;;;;17.88;8.35;;;;;;;8.09;99.33;101010.28;8203608;28;20689;-81
2021/12/13 16:01:28;;;;;;;12.38;6.03;;;;;;;8.06;99.50;101010.69;8183351;28;20050;-81
2021/12/13 16:05:36;;;;;;;9.65;5.28;;;;;;;8.05;99.31;101005.38;8192216;28;20046;-82
2021/12/13 16:09:47;;;;;;;9.82;5.97;;;;;;;8.08;99.61;101008.56;8198896;28;20055;-82
2021/12/13 16:13:49;;;;;;;12.38;6.03;;;;;;;7.99;100.00;100998.81;8186117;28;20043;-83
2021/12/13 16:17:53;;;;;;;115.38;44.15;;;;;;;7.91;100.00;101008.06;8193409;28;20043;-81
2021/12/13 16:21:54;;;;;;;76.53;33.28;;;;;;;7.87;100.00;101006.78;8194508;28;20401;-82
2021/12/13 16:26:05;;;;;;;87.65;33.60;;;;;;;7.89;100.00;101009.31;8195233;28;20137;-84
2021/12/13 16:30:06;;;;;;;24.85;11.93;;;;;;;7.87;100.00;101000.44;8197137;28;20082;-82
2021/12/13 16:34:12;;;;;;;14.82;7.18;;;;;;;7.85;100.00;100997.91;8191042;28;20411;-81
2021/12/13 16:38:13;;;;;;;17.50;8.48;;;;;;;7.84;100.00;100998.09;8191967;28;20058;-81
2021/12/13 16:42:15;;;;;;;35.22;16.35;;;;;;;7.81;100.00;100998.50;8198112;28;20043;-82
2021/12/13 16:46:18;;;;;;;23.90;12.23;;;;;;;7.80;100.00;101013.28;8188865;28;20058;-80
2021/12/13 16:50:19;;;;;;;18.27;8.90;;;;;;;7.84;100.00;101006.34;8198129;28;20412;-83
2021/12/13 16:54:23;;;;;;;13.77;7.32;;;;;;;7.83;100.00;101010.13;8194742;28;20046;-82
2021/12/13 16:58:28;;;;;;;15.00;8.45;;;;;;;7.82;100.00;101016.66;8197787;28;20511;-82
2021/12/13 17:02:29;;;;;;;12.23;7.38;;;;;;;7.79;100.00;101012.41;8191967;28;20046;-82
2021/12/13 17:06:29;;;;;;;11.23;5.95;;;;;;;7.80;100.00;101022.38;8192247;28;20130;-82
2021/12/13 17:10:37;;;;;;;12.80;6.47;;;;;;;7.68;100.00;101027.56;8194575;28;20046;-82
2021/12/13 17:14:59;;;;;;;10.93;6.35;;;;;;;7.71;100.00;101024.41;8187610;28;20047;-81
2021/12/13 17:19:16;;;;;;;10.90;5.38;;;;;;;7.73;100.00;101025.06;8177661;28;20070;-81
2021/12/13 17:23:28;;;;;;;10.95;5.95;;;;;;;7.70;100.00;101016.38;8199168;28;20047;-83
2021/12/13 17:27:33;;;;;;;9.80;5.50;;;;;;;7.62;100.00;101011.06;8193393;28;20563;-81
2021/12/13 17:31:49;;;;;;;12.07;5.75;;;;;;;7.63;100.00;101015.50;8162915;28;20549;-80
2021/12/13 17:35:49;;;;;;;13.38;5.65;;;;;;;7.66;100.00;101017.84;8203032;28;20122;-80
2021/12/13 17:40:27;;;;;;;10.70;5.55;;;;;;;7.68;100.00;101030.31;8202987;28;20051;-81
2021/12/13 17:44:27;;;;;;;9.82;4.53;;;;;;;7.68;100.00;101035.78;8200410;28;20420;-80
2021/12/13 17:48:42;;;;;;;11.88;6.03;;;;;;;7.70;100.00;101039.19;8186893;28;20130;-79
2021/12/13 17:52:46;;;;;;;16.70;6.15;;;;;;;7.68;100.00;101024.81;8201326;28;20751;-81
2021/12/13 17:56:53;;;;;;;15.65;6.75;;;;;;;7.74;100.00;101023.16;8192085;28;20516;-80
2021/12/13 18:01:04;;;;;;;15.43;7.05;;;;;;;7.79;100.00;101034.38;8207014;28;20130;-81
2021/12/13 18:05:10;;;;;;;14.73;7.07;;;;;;;7.80;100.00;101024.25;8210882;28;20590;-81
2021/12/13 18:09:20;;;;;;;9.25;5.07;;;;;;;7.80;100.00;101024.25;8207175;28;20074;-81
2021/12/13 18:13:23;;;;;;;9.50;4.88;;;;;;;7.82;100.00;101030.38;8200562;28;20051;-81
2021/12/13 18:17:55;;;;;;;9.57;4.97;;;;;;;7.82;100.00;101030.38;8199389;28;20077;-81
2021/12/13 18:21:55;;;;;;;9.63;4.47;;;;;;;7.79;100.00;101031.63;8195599;28;20051;-81
2021/12/13 18:25:58;;;;;;;7.05;4.05;;;;;;;7.81;100.00;101031.44;8206280;28;20348;-81
2021/12/13 18:30:11;;;;;;;5.40;3.15;;;;;;;7.81;100.00;101037.75;8205474;28;20134;-81
2021/12/13 18:34:32;;;;;;;6.20;3.08;;;;;;;7.82;100.00;101042.19;8183598;28;20078;-81
2021/12/13 18:38:35;;;;;;;6.25;3.67;;;;;;;7.79;100.00;101028.88;8201170;28;20039;-81
2021/12/13 18:42:41;;;;;;;8.55;4.25;;;;;;;7.78;100.00;101029.94;8185651;28;20059;-81
2021/12/13 18:46:51;;;;;;;6.95;3.63;;;;;;;7.79;100.00;101039.00;8183071;28;20047;-81
2021/12/13 18:50:57;;;;;;;7.32;4.07;;;;;;;7.81;100.00;101045.16;8197564;28;20055;-82
2021/12/13 18:55:12;;;;;;;7.50;4.53;;;;;;;7.82;100.00;101030.38;8191177;28;20070;-81
2021/12/13 18:59:23;;;;;;;7.97;4.10;;;;;;;7.82;100.00;101033.13;8191080;28;20047;-81
2021/12/13 19:03:30;;;;;;;8.20;4.68;;;;;;;7.79;100.00;101036.28;8191569;28;20077;-81
2021/12/13 19:07:33;;;;;;;7.80;4.25;;;;;;;7.72;100.00;101037.06;8192612;28;20046;-81
2021/12/13 19:11:42;;;;;;;6.60;3.65;;;;;;;7.75;100.00;101041.31;8201134;28;20039;-81
2021/12/13 19:15:44;;;;;;;11.43;6.25;;;;;;;7.78;100.00;101031.84;8183239;28;20042;-81
2021/12/13 19:19:49;;;;;;;8.65;4.65;;;;;;;7.79;100.00;101030.78;8189641;28;20031;-81
2021/12/13 19:23:52;;;;;;;9.13;4.47;;;;;;;7.82;100.00;101033.13;8201267;28;20054;-82
2021/12/13 19:27:59;;;;;;;7.38;4.45;;;;;;;7.85;100.00;101029.97;8182999;28;20065;-82
2021/12/13 19:32:09;;;;;;;6.25;4.18;;;;;;;7.88;100.00;101029.56;8200154;28;20047;-82
2021/12/13 19:36:33;;;;;;;7.90;4.10;;;;;;;7.90;100.00;101021.97;8187360;28;20480;-81
2021/12/13 19:40:45;;;;;;;6.78;3.65;;;;;;;7.90;100.00;101019.25;8195299;28;20059;-82
2021/12/13 19:44:55;;;;;;;6.38;3.55;;;;;;;7.91;100.00;101015.44;8198498;28;20062;-81
2021/12/13 19:49:00;;;;;;;6.68;4.15;;;;;;;7.88;100.00;101007.59;8176800;28;20054;-81
2021/12/13 19:53:08;;;;;;;6.63;3.92;;;;;;;7.87;100.00;101011.41;8188623;28;20226;-81